sensor_id;sensor_type;location;lat;lon;timestamp;pressure;altitude;pressure_sealevel;temperature;humidity
20825;BME280;10573;50.936;6.978;2023-01-26T00:01:13;102151.06;;;1.39;73.75
20825;BME280;10573;50.936;6.978;2023-01-26T00:03:38;102155.19;;;1.49;73.38
20825;BME280;10573;50.936;6.978;2023-01-26T00:06:05;102141.38;;;1.34;73.23
20825;BME280;10573;50.936;6.978;2023-01-26T00:08:52;102138.50;;;1.39;73.07
20825;BME280;10573;50.936;6.978;2023-01-26T00:11:23;102136.31;;;1.25;73.57
20825;BME280;10573;50.936;6.978;2023-01-26T00:13:51;102136.75;;;1.38;73.16
20825;BME280;10573;50.936;6.978;2023-01-26T00:16:17;102139.91;;;1.24;73.15
20825;BME280;10573;50.936;6.978;2023-01-26T00:18:43;102148.03;;;1.49;72.80
20825;BME280;10573;50.936;6.978;2023-01-26T00:21:15;102144.97;;;1.33;73.09
20825;BME280;10573;50.936;6.978;2023-01-26T00:23:41;102149.41;;;0.78;74.22
20825;BME280;10573;50.936;6.978;2023-01-26T00:26:09;102140.78;;;0.96;74.92
20825;BME280;10573;50.936;6.978;2023-01-26T00:28:35;102137.75;;;1.07;74.66
20825;BME280;10573;50.936;6.978;2023-01-26T00:31:11;102133.31;;;1.34;73.88
20825;BME280;10573;50.936;6.978;2023-01-26T00:33:37;102124.63;;;0.99;74.26
20825;BME280;10573;50.936;6.978;2023-01-26T00:36:03;102122.97;;;0.95;74.57
20825;BME280;10573;50.936;6.978;2023-01-26T00:38:29;102114.59;;;1.05;73.88
20825;BME280;10573;50.936;6.978;2023-01-26T00:40:54;102109.75;;;1.16;73.41
20825;BME280;10573;50.936;6.978;2023-01-26T00:43:20;102100.88;;;1.14;73.38
20825;BME280;10573;50.936;6.978;2023-01-26T00:45:45;102104.59;;;1.10;73.36
20825;BME280;10573;50.936;6.978;2023-01-26T00:48:10;102109.94;;;1.10;73.73
20825;BME280;10573;50.936;6.978;2023-01-26T00:50:36;102108.91;;;1.14;73.56
20825;BME280;10573;50.936;6.978;2023-01-26T00:53:02;102103.19;;;1.25;72.98
20825;BME280;10573;50.936;6.978;2023-01-26T00:55:28;102103.47;;;1.44;72.80
20825;BME280;10573;50.936;6.978;2023-01-26T00:58:00;102107.50;;;1.30;72.18
20825;BME280;10573;50.936;6.978;2023-01-26T01:00:27;102105.50;;;1.09;72.08
20825;BME280;10573;50.936;6.978;2023-01-26T01:02:53;102098.59;;;1.02;73.37
20825;BME280;10573;50.936;6.978;2023-01-26T01:05:21;102101.38;;;0.70;73.97
20825;BME280;10573;50.936;6.978;2023-01-26T01:07:48;102105.16;;;0.91;74.02
20825;BME280;10573;50.936;6.978;2023-01-26T01:10:13;102090.44;;;1.05;73.53
20825;BME280;10573;50.936;6.978;2023-01-26T01:12:39;102090.34;;;1.08;73.20
20825;BME280;10573;50.936;6.978;2023-01-26T01:15:05;102096.38;;;0.88;73.15
20825;BME280;10573;50.936;6.978;2023-01-26T01:17:31;102093.09;;;1.06;73.35
20825;BME280;10573;50.936;6.978;2023-01-26T01:19:57;102092.78;;;0.87;73.62
20825;BME280;10573;50.936;6.978;2023-01-26T01:22:22;102088.78;;;0.72;73.70
20825;BME280;10573;50.936;6.978;2023-01-26T01:24:48;102086.94;;;1.03;73.31
20825;BME280;10573;50.936;6.978;2023-01-26T01:27:13;102089.59;;;0.76;73.82
20825;BME280;10573;50.936;6.978;2023-01-26T01:29:38;102078.59;;;0.25;75.10
20825;BME280;10573;50.936;6.978;2023-01-26T01:32:04;102082.78;;;0.36;75.28
20825;BME280;10573;50.936;6.978;2023-01-26T01:34:29;102091.47;;;0.14;75.11
20825;BME280;10573;50.936;6.978;2023-01-26T01:36:55;102082.06;;;-0.01;75.74
20825;BME280;10573;50.936;6.978;2023-01-26T01:39:20;102085.81;;;-0.08;75.88
20825;BME280;10573;50.936;6.978;2023-01-26T01:41:46;102074.72;;;0.06;75.95
20825;BME280;10573;50.936;6.978;2023-01-26T01:44:20;102067.97;;;0.22;75.13
20825;BME280;10573;50.936;6.978;2023-01-26T01:49:32;102078.53;;;0.28;74.60
20825;BME280;10573;50.936;6.978;2023-01-26T01:52:08;102071.41;;;0.27;74.83
20825;BME280;10573;50.936;6.978;2023-01-26T01:54:43;102067.47;;;0.39;73.86
20825;BME280;10573;50.936;6.978;2023-01-26T01:57:14;102077.38;;;0.65;73.49
20825;BME280;10573;50.936;6.978;2023-01-26T01:59:50;102065.78;;;0.93;72.89
20825;BME280;10573;50.936;6.978;2023-01-26T02:02:17;102063.56;;;0.49;73.18
20825;BME280;10573;50.936;6.978;2023-01-26T02:04:43;102055.06;;;0.37;73.74
20825;BME280;10573;50.936;6.978;2023-01-26T02:07:09;102056.38;;;0.80;73.35
20825;BME280;10573;50.936;6.978;2023-01-26T02:09:37;102052.28;;;0.10;73.75
20825;BME280;10573;50.936;6.978;2023-01-26T02:12:26;102050.28;;;0.46;73.44
20825;BME280;10573;50.936;6.978;2023-01-26T02:14:54;102044.78;;;0.21;73.87
20825;BME280;10573;50.936;6.978;2023-01-26T02:17:21;102038.22;;;0.31;74.17
20825;BME280;10573;50.936;6.978;2023-01-26T02:25:03;102039.97;;;0.03;74.79
20825;BME280;10573;50.936;6.978;2023-01-26T02:27:31;102025.09;;;0.22;75.14
20825;BME280;10573;50.936;6.978;2023-01-26T02:29:57;102027.53;;;0.87;73.93
20825;BME280;10573;50.936;6.978;2023-01-26T02:32:24;102033.06;;;0.82;73.33
20825;BME280;10573;50.936;6.978;2023-01-26T02:34:58;102024.34;;;0.75;72.91
20825;BME280;10573;50.936;6.978;2023-01-26T02:37:24;102020.53;;;0.82;72.25
20825;BME280;10573;50.936;6.978;2023-01-26T02:40:03;102025.16;;;1.04;72.43
20825;BME280;10573;50.936;6.978;2023-01-26T02:42:31;102022.16;;;0.87;72.22
20825;BME280;10573;50.936;6.978;2023-01-26T02:45:03;102015.41;;;1.02;72.17
20825;BME280;10573;50.936;6.978;2023-01-26T02:47:29;102007.88;;;0.86;71.97
20825;BME280;10573;50.936;6.978;2023-01-26T02:49:54;102012.72;;;1.02;72.12
20825;BME280;10573;50.936;6.978;2023-01-26T02:52:24;102001.41;;;1.19;70.96
20825;BME280;10573;50.936;6.978;2023-01-26T02:54:51;102002.59;;;1.10;71.02
20825;BME280;10573;50.936;6.978;2023-01-26T02:57:35;102008.56;;;1.18;71.84
20825;BME280;10573;50.936;6.978;2023-01-26T03:00:06;102008.44;;;1.23;71.38
20825;BME280;10573;50.936;6.978;2023-01-26T03:02:32;102013.44;;;1.07;72.20
20825;BME280;10573;50.936;6.978;2023-01-26T03:04:57;102003.50;;;1.10;72.35
20825;BME280;10573;50.936;6.978;2023-01-26T03:07:23;102003.91;;;1.23;71.94
20825;BME280;10573;50.936;6.978;2023-01-26T03:09:48;102003.19;;;1.20;71.84
20825;BME280;10573;50.936;6.978;2023-01-26T03:12:14;101995.06;;;1.21;71.86
20825;BME280;10573;50.936;6.978;2023-01-26T03:14:40;101988.50;;;1.03;72.98
20825;BME280;10573;50.936;6.978;2023-01-26T03:17:05;101985.75;;;1.06;73.48
20825;BME280;10573;50.936;6.978;2023-01-26T03:19:31;101997.94;;;1.15;72.63
20825;BME280;10573;50.936;6.978;2023-01-26T03:22:15;101997.34;;;1.07;73.03
20825;BME280;10573;50.936;6.978;2023-01-26T03:24:59;101985.16;;;0.96;73.64
20825;BME280;10573;50.936;6.978;2023-01-26T03:27:50;101989.66;;;0.96;74.71
20825;BME280;10573;50.936;6.978;2023-01-26T03:30:17;101982.94;;;1.09;74.56
20825;BME280;10573;50.936;6.978;2023-01-26T03:32:43;101987.38;;;1.10;74.48
20825;BME280;10573;50.936;6.978;2023-01-26T03:35:09;101990.28;;;1.04;74.94
20825;BME280;10573;50.936;6.978;2023-01-26T03:37:40;101981.84;;;1.15;73.87
20825;BME280;10573;50.936;6.978;2023-01-26T03:40:09;101986.19;;;0.92;74.27
20825;BME280;10573;50.936;6.978;2023-01-26T03:42:53;101976.75;;;1.07;75.01
20825;BME280;10573;50.936;6.978;2023-01-26T03:45:37;101979.59;;;1.03;75.13
20825;BME280;10573;50.936;6.978;2023-01-26T03:48:21;101981.38;;;1.02;74.37
20825;BME280;10573;50.936;6.978;2023-01-26T03:51:05;101972.69;;;1.21;74.41
20825;BME280;10573;50.936;6.978;2023-01-26T03:53:49;101982.41;;;0.99;74.02
20825;BME280;10573;50.936;6.978;2023-01-26T03:56:33;101980.41;;;1.05;74.84
20825;BME280;10573;50.936;6.978;2023-01-26T03:59:00;101979.69;;;1.26;74.33
20825;BME280;10573;50.936;6.978;2023-01-26T04:01:44;101973.00;;;1.13;75.24
20825;BME280;10573;50.936;6.978;2023-01-26T04:04:28;101976.78;;;1.06;75.62
20825;BME280;10573;50.936;6.978;2023-01-26T04:07:12;101976.78;;;1.06;74.25
20825;BME280;10573;50.936;6.978;2023-01-26T04:09:56;101973.38;;;1.00;74.69
20825;BME280;10573;50.936;6.978;2023-01-26T04:12:21;101960.88;;;1.01;74.24
20825;BME280;10573;50.936;6.978;2023-01-26T04:14:47;101963.63;;;0.99;74.41
20825;BME280;10573;50.936;6.978;2023-01-26T04:17:31;101971.06;;;1.16;74.80
20825;BME280;10573;50.936;6.978;2023-01-26T04:20:15;101963.03;;;0.90;74.75
20825;BME280;10573;50.936;6.978;2023-01-26T04:22:59;101966.06;;;1.06;74.81
20825;BME280;10573;50.936;6.978;2023-01-26T04:25:24;101963.63;;;0.99;75.52
20825;BME280;10573;50.936;6.978;2023-01-26T04:27:50;101967.88;;;1.05;75.04
20825;BME280;10573;50.936;6.978;2023-01-26T04:30:16;101966.44;;;0.95;75.74
20825;BME280;10573;50.936;6.978;2023-01-26T04:32:42;101959.91;;;1.02;76.10
20825;BME280;10573;50.936;6.978;2023-01-26T04:35:09;101956.19;;;1.31;74.64
20825;BME280;10573;50.936;6.978;2023-01-26T04:37:34;101960.75;;;1.04;74.99
20825;BME280;10573;50.936;6.978;2023-01-26T04:40:00;101959.00;;;1.03;75.72
20825;BME280;10573;50.936;6.978;2023-01-26T04:42:25;101957.41;;;0.97;74.79
20825;BME280;10573;50.936;6.978;2023-01-26T04:44:51;101957.97;;;0.80;75.81
20825;BME280;10573;50.936;6.978;2023-01-26T04:47:18;101962.25;;;1.13;75.19
20825;BME280;10573;50.936;6.978;2023-01-26T04:49:44;101961.63;;;1.05;75.73
20825;BME280;10573;50.936;6.978;2023-01-26T04:52:09;101964.22;;;1.08;75.80
20825;BME280;10573;50.936;6.978;2023-01-26T04:54:35;101957.41;;;0.97;74.92
20825;BME280;10573;50.936;6.978;2023-01-26T04:57:00;101960.09;;;0.97;74.43
20825;BME280;10573;50.936;6.978;2023-01-26T04:59:26;101958.00;;;1.06;75.24
20825;BME280;10573;50.936;6.978;2023-01-26T05:01:51;101968.28;;;1.20;74.23
20825;BME280;10573;50.936;6.978;2023-01-26T05:04:16;101963.09;;;0.88;75.20
20825;BME280;10573;50.936;6.978;2023-01-26T05:06:42;101969.06;;;0.96;75.61
20825;BME280;10573;50.936;6.978;2023-01-26T05:09:08;101969.34;;;1.14;75.17
20825;BME280;10573;50.936;6.978;2023-01-26T05:11:34;101971.94;;;1.17;74.85
20825;BME280;10573;50.936;6.978;2023-01-26T05:13:59;101969.63;;;1.31;74.52
20825;BME280;10573;50.936;6.978;2023-01-26T05:16:25;101963.72;;;1.47;73.84
20825;BME280;10573;50.936;6.978;2023-01-26T05:18:50;101963.44;;;1.29;74.13
20825;BME280;10573;50.936;6.978;2023-01-26T05:21:17;101967.31;;;1.46;74.07
20825;BME280;10573;50.936;6.978;2023-01-26T05:23:42;101966.78;;;1.36;74.20
20825;BME280;10573;50.936;6.978;2023-01-26T05:26:08;101966.66;;;1.39;73.70
20825;BME280;10573;50.936;6.978;2023-01-26T05:28:34;101965.13;;;1.57;73.54
20825;BME280;10573;50.936;6.978;2023-01-26T05:31:00;101973.13;;;1.33;73.41
20825;BME280;10573;50.936;6.978;2023-01-26T05:33:25;101981.41;;;1.27;74.39
20825;BME280;10573;50.936;6.978;2023-01-26T05:35:51;101980.34;;;1.31;74.65
20825;BME280;10573;50.936;6.978;2023-01-26T05:38:17;101974.13;;;1.06;74.51
20825;BME280;10573;50.936;6.978;2023-01-26T05:40:43;101970.63;;;1.04;74.87
20825;BME280;10573;50.936;6.978;2023-01-26T05:43:09;101972.31;;;1.06;75.41
20825;BME280;10573;50.936;6.978;2023-01-26T05:45:34;101967.41;;;0.65;75.66
20825;BME280;10573;50.936;6.978;2023-01-26T05:48:00;101966.38;;;0.70;76.08
20825;BME280;10573;50.936;6.978;2023-01-26T05:50:26;101969.06;;;0.70;76.12
20825;BME280;10573;50.936;6.978;2023-01-26T05:52:51;101969.38;;;0.87;76.20
20825;BME280;10573;50.936;6.978;2023-01-26T05:55:17;101973.63;;;0.94;75.32
20825;BME280;10573;50.936;6.978;2023-01-26T05:57:42;101978.84;;;1.24;74.58
20825;BME280;10573;50.936;6.978;2023-01-26T06:00:09;101975.31;;;1.22;73.97
20825;BME280;10573;50.936;6.978;2023-01-26T06:02:35;101980.69;;;1.22;74.86
20825;BME280;10573;50.936;6.978;2023-01-26T06:05:01;101977.41;;;1.39;74.13
20825;BME280;10573;50.936;6.978;2023-01-26T06:07:26;101981.56;;;1.48;74.03
20825;BME280;10573;50.936;6.978;2023-01-26T06:09:52;101972.47;;;1.52;73.76
20825;BME280;10573;50.936;6.978;2023-01-26T06:12:19;101971.88;;;1.67;73.29
20825;BME280;10573;50.936;6.978;2023-01-26T06:14:45;101978.44;;;1.60;73.20
20825;BME280;10573;50.936;6.978;2023-01-26T06:17:11;101983.97;;;1.56;73.80
20825;BME280;10573;50.936;6.978;2023-01-26T06:19:38;101980.16;;;1.38;73.95
20825;BME280;10573;50.936;6.978;2023-01-26T06:22:07;101985.84;;;1.28;74.51
20825;BME280;10573;50.936;6.978;2023-01-26T06:24:32;101984.88;;;1.31;74.68
20825;BME280;10573;50.936;6.978;2023-01-26T06:26:58;101990.72;;;1.17;74.88
20825;BME280;10573;50.936;6.978;2023-01-26T06:29:24;101990.81;;;1.14;75.44
20825;BME280;10573;50.936;6.978;2023-01-26T06:31:49;101993.19;;;1.23;75.05
20825;BME280;10573;50.936;6.978;2023-01-26T06:34:15;101997.56;;;1.26;75.23
20825;BME280;10573;50.936;6.978;2023-01-26T06:36:40;101992.72;;;0.85;75.48
20825;BME280;10573;50.936;6.978;2023-01-26T06:39:05;101998.44;;;1.01;75.92
20825;BME280;10573;50.936;6.978;2023-01-26T06:41:31;102001.78;;;1.08;75.94
20825;BME280;10573;50.936;6.978;2023-01-26T06:43:57;102006.53;;;1.25;75.11
20825;BME280;10573;50.936;6.978;2023-01-26T06:46:22;102002.13;;;1.24;75.33
20825;BME280;10573;50.936;6.978;2023-01-26T06:48:48;102009.88;;;1.31;74.99
20825;BME280;10573;50.936;6.978;2023-01-26T06:53:52;102008.63;;;1.42;74.57
20825;BME280;10573;50.936;6.978;2023-01-26T06:56:19;102000.25;;;1.51;74.97
20825;BME280;10573;50.936;6.978;2023-01-26T06:58:45;102006.72;;;1.45;75.18
20825;BME280;10573;50.936;6.978;2023-01-26T07:01:18;102007.06;;;1.36;74.85
20825;BME280;10573;50.936;6.978;2023-01-26T07:03:44;102006.78;;;1.44;74.48
20825;BME280;10573;50.936;6.978;2023-01-26T07:06:09;102007.59;;;1.46;74.93
20825;BME280;10573;50.936;6.978;2023-01-26T07:08:38;102000.91;;;1.58;74.79
20825;BME280;10573;50.936;6.978;2023-01-26T07:11:04;102000.72;;;1.62;74.86
20825;BME280;10573;50.936;6.978;2023-01-26T07:13:30;102014.00;;;1.42;75.15
20825;BME280;10573;50.936;6.978;2023-01-26T07:16:07;102017.19;;;1.53;75.48
20825;BME280;10573;50.936;6.978;2023-01-26T07:18:33;102021.13;;;1.17;75.93
20825;BME280;10573;50.936;6.978;2023-01-26T07:21:16;102007.72;;;1.43;75.72
20825;BME280;10573;50.936;6.978;2023-01-26T07:23:48;102004.06;;;1.45;75.30
20825;BME280;10573;50.936;6.978;2023-01-26T07:26:18;102002.56;;;1.37;74.79
20825;BME280;10573;50.936;6.978;2023-01-26T07:28:43;101999.66;;;1.43;75.51
20825;BME280;10573;50.936;6.978;2023-01-26T07:31:10;101993.56;;;1.63;75.21
20825;BME280;10573;50.936;6.978;2023-01-26T07:33:36;101994.88;;;1.51;75.03
20825;BME280;10573;50.936;6.978;2023-01-26T07:36:02;101998.63;;;1.47;74.82
20825;BME280;10573;50.936;6.978;2023-01-26T07:38:28;101998.22;;;1.07;75.37
20825;BME280;10573;50.936;6.978;2023-01-26T07:40:54;102004.03;;;1.20;75.67
20825;BME280;10573;50.936;6.978;2023-01-26T07:43:19;102006.63;;;0.96;76.16
20825;BME280;10573;50.936;6.978;2023-01-26T07:45:50;102010.81;;;1.05;76.61
20825;BME280;10573;50.936;6.978;2023-01-26T07:48:17;102004.25;;;1.14;76.75
20825;BME280;10573;50.936;6.978;2023-01-26T07:50:43;102013.19;;;1.14;76.62
20825;BME280;10573;50.936;6.978;2023-01-26T07:53:10;102008.69;;;1.15;76.45
20825;BME280;10573;50.936;6.978;2023-01-26T07:55:37;102000.81;;;1.10;75.63
20825;BME280;10573;50.936;6.978;2023-01-26T07:58:02;102008.19;;;1.29;76.01
20825;BME280;10573;50.936;6.978;2023-01-26T08:00:28;102015.97;;;1.37;75.28
20825;BME280;10573;50.936;6.978;2023-01-26T08:02:53;102023.09;;;1.12;76.20
20825;BME280;10573;50.936;6.978;2023-01-26T08:05:19;102018.44;;;1.17;76.29
20825;BME280;10573;50.936;6.978;2023-01-26T08:07:44;101995.69;;;1.53;75.10
20825;BME280;10573;50.936;6.978;2023-01-26T08:10:10;102003.25;;;1.67;74.62
20825;BME280;10573;50.936;6.978;2023-01-26T08:12:36;101991.28;;;1.76;74.17
20825;BME280;10573;50.936;6.978;2023-01-26T08:15:02;102000.28;;;1.75;73.45
20825;BME280;10573;50.936;6.978;2023-01-26T08:17:30;102002.28;;;1.70;73.24
20825;BME280;10573;50.936;6.978;2023-01-26T08:19:58;101998.53;;;1.74;73.16
20825;BME280;10573;50.936;6.978;2023-01-26T08:22:24;102005.41;;;1.81;72.69
20825;BME280;10573;50.936;6.978;2023-01-26T08:24:49;102017.19;;;1.53;73.57
20825;BME280;10573;50.936;6.978;2023-01-26T08:27:14;102013.53;;;1.79;73.48
20825;BME280;10573;50.936;6.978;2023-01-26T08:29:41;102014.06;;;1.89;72.81
20825;BME280;10573;50.936;6.978;2023-01-26T08:32:06;102004.84;;;1.96;72.42
20825;BME280;10573;50.936;6.978;2023-01-26T08:34:33;102013.00;;;1.93;73.33
20825;BME280;10573;50.936;6.978;2023-01-26T08:36:59;102017.59;;;1.15;73.67
20825;BME280;10573;50.936;6.978;2023-01-26T08:39:24;102016.88;;;1.37;74.81
20825;BME280;10573;50.936;6.978;2023-01-26T08:41:49;102012.81;;;1.25;74.95
20825;BME280;10573;50.936;6.978;2023-01-26T08:44:15;102022.66;;;1.50;74.92
20825;BME280;10573;50.936;6.978;2023-01-26T08:46:42;102021.78;;;1.75;73.42
20825;BME280;10573;50.936;6.978;2023-01-26T08:49:08;102022.84;;;1.94;72.91
20825;BME280;10573;50.936;6.978;2023-01-26T08:51:33;102026.53;;;1.66;73.62
20825;BME280;10573;50.936;6.978;2023-01-26T08:53:59;102028.63;;;1.83;72.89
20825;BME280;10573;50.936;6.978;2023-01-26T08:56:24;102024.59;;;1.95;72.81
20825;BME280;10573;50.936;6.978;2023-01-26T08:58:50;102031.75;;;1.46;73.98
20825;BME280;10573;50.936;6.978;2023-01-26T09:01:16;102030.50;;;1.31;74.68
20825;BME280;10573;50.936;6.978;2023-01-26T09:03:41;102035.16;;;1.76;73.92
20825;BME280;10573;50.936;6.978;2023-01-26T09:06:09;102029.44;;;1.86;73.36
20825;BME280;10573;50.936;6.978;2023-01-26T09:08:35;102029.50;;;2.08;73.30
20825;BME280;10573;50.936;6.978;2023-01-26T09:11:00;102024.75;;;2.14;72.83
20825;BME280;10573;50.936;6.978;2023-01-26T09:13:26;102037.06;;;2.22;72.42
20825;BME280;10573;50.936;6.978;2023-01-26T09:15:52;102043.66;;;2.13;72.40
20825;BME280;10573;50.936;6.978;2023-01-26T09:18:17;102045.75;;;2.28;71.94
20825;BME280;10573;50.936;6.978;2023-01-26T09:20:43;102036.84;;;2.03;73.00
20825;BME280;10573;50.936;6.978;2023-01-26T09:23:08;102039.56;;;2.26;72.75
20825;BME280;10573;50.936;6.978;2023-01-26T09:25:36;102040.06;;;2.36;72.55
20825;BME280;10573;50.936;6.978;2023-01-26T09:28:03;102033.63;;;2.40;71.88
20825;BME280;10573;50.936;6.978;2023-01-26T09:30:28;102041.94;;;2.10;72.85
20825;BME280;10573;50.936;6.978;2023-01-26T09:32:58;102043.06;;;2.28;72.55
20825;BME280;10573;50.936;6.978;2023-01-26T09:35:25;102044.50;;;2.37;72.08
20825;BME280;10573;50.936;6.978;2023-01-26T09:37:50;102048.38;;;2.30;71.83
20825;BME280;10573;50.936;6.978;2023-01-26T09:40:19;102044.22;;;2.45;71.67
20825;BME280;10573;50.936;6.978;2023-01-26T09:45:23;102046.91;;;2.21;73.04
20825;BME280;10573;50.936;6.978;2023-01-26T09:53:17;102042.00;;;2.09;74.60
20825;BME280;10573;50.936;6.978;2023-01-26T09:55:44;102043.53;;;2.16;74.31
20825;BME280;10573;50.936;6.978;2023-01-26T09:58:34;102053.81;;;2.05;74.09
20825;BME280;10573;50.936;6.978;2023-01-26T10:01:02;102054.19;;;2.19;74.83
20825;BME280;10573;50.936;6.978;2023-01-26T10:03:40;102054.69;;;2.29;74.26
20825;BME280;10573;50.936;6.978;2023-01-26T10:06:20;102051.25;;;2.01;74.72
20825;BME280;10573;50.936;6.978;2023-01-26T10:08:48;102047.63;;;2.26;74.97
20825;BME280;10573;50.936;6.978;2023-01-26T10:11:36;102030.19;;;2.37;75.28
20825;BME280;10573;50.936;6.978;2023-01-26T10:16:36;102032.88;;;2.13;74.83
20825;BME280;10573;50.936;6.978;2023-01-26T10:19:12;102039.44;;;1.82;75.30
20825;BME280;10573;50.936;6.978;2023-01-26T10:21:43;102027.38;;;2.16;75.47
20825;BME280;10573;50.936;6.978;2023-01-26T10:24:13;102028.66;;;2.29;75.02
20825;BME280;10573;50.936;6.978;2023-01-26T10:26:40;102031.09;;;2.59;74.51
20825;BME280;10573;50.936;6.978;2023-01-26T10:29:12;102028.63;;;2.07;74.63
20825;BME280;10573;50.936;6.978;2023-01-26T10:31:39;102035.06;;;2.03;75.52
20825;BME280;10573;50.936;6.978;2023-01-26T10:34:13;102031.19;;;1.87;75.74
20825;BME280;10573;50.936;6.978;2023-01-26T10:36:41;102026.09;;;2.26;75.40
20825;BME280;10573;50.936;6.978;2023-01-26T10:39:09;102014.81;;;2.62;74.92
20825;BME280;10573;50.936;6.978;2023-01-26T10:41:35;102017.69;;;2.35;74.46
20825;BME280;10573;50.936;6.978;2023-01-26T10:44:09;102007.81;;;2.58;74.16
20825;BME280;10573;50.936;6.978;2023-01-26T10:46:42;102007.16;;;2.29;74.88
20825;BME280;10573;50.936;6.978;2023-01-26T10:51:35;102003.88;;;1.99;76.21
20825;BME280;10573;50.936;6.978;2023-01-26T10:54:30;102001.28;;;2.42;75.09
20825;BME280;10573;50.936;6.978;2023-01-26T10:57:12;101997.16;;;2.55;74.38
20825;BME280;10573;50.936;6.978;2023-01-26T11:07:33;101989.91;;;2.79;73.98
20825;BME280;10573;50.936;6.978;2023-01-26T11:12:47;101990.41;;;2.45;74.26
20825;BME280;10573;50.936;6.978;2023-01-26T11:15:21;101994.81;;;2.47;74.65
20825;BME280;10573;50.936;6.978;2023-01-26T11:17:51;101991.13;;;2.50;74.18
20825;BME280;10573;50.936;6.978;2023-01-26T11:29:17;101985.47;;;2.56;74.60
20825;BME280;10573;50.936;6.978;2023-01-26T11:31:53;101983.84;;;2.52;74.92
20825;BME280;10573;50.936;6.978;2023-01-26T11:48:38;101968.81;;;2.68;74.68
20825;BME280;10573;50.936;6.978;2023-01-26T11:59:24;101961.84;;;2.85;74.89
20825;BME280;10573;50.936;6.978;2023-01-26T12:02:01;101961.97;;;2.39;75.75
20825;BME280;10573;50.936;6.978;2023-01-26T12:04:30;101957.09;;;2.69;75.75
20825;BME280;10573;50.936;6.978;2023-01-26T12:07:05;101948.25;;;2.67;74.95
20825;BME280;10573;50.936;6.978;2023-01-26T12:09:40;101953.88;;;2.61;74.30
20825;BME280;10573;50.936;6.978;2023-01-26T12:12:31;101947.97;;;2.74;73.99
20825;BME280;10573;50.936;6.978;2023-01-26T12:15:09;101950.47;;;2.78;73.83
20825;BME280;10573;50.936;6.978;2023-01-26T12:20:47;101942.66;;;2.93;74.18
20825;BME280;10573;50.936;6.978;2023-01-26T12:23:28;101944.03;;;3.03;73.44
20825;BME280;10573;50.936;6.978;2023-01-26T12:25:59;101945.94;;;2.58;74.47
20825;BME280;10573;50.936;6.978;2023-01-26T12:31:48;101932.34;;;2.61;75.84
20825;BME280;10573;50.936;6.978;2023-01-26T12:34:28;101926.28;;;2.56;75.91
20825;BME280;10573;50.936;6.978;2023-01-26T12:39:47;101925.34;;;2.57;76.23
20825;BME280;10573;50.936;6.978;2023-01-26T12:42:42;101916.22;;;2.61;75.64
20825;BME280;10573;50.936;6.978;2023-01-26T12:45:29;101914.66;;;2.76;75.84
20825;BME280;10573;50.936;6.978;2023-01-26T12:50:45;101905.88;;;2.93;74.71
20825;BME280;10573;50.936;6.978;2023-01-26T12:53:21;101911.66;;;2.84;75.52
20825;BME280;10573;50.936;6.978;2023-01-26T12:56:01;101899.06;;;2.84;75.34
20825;BME280;10573;50.936;6.978;2023-01-26T12:58:40;101907.72;;;2.50;75.71
20825;BME280;10573;50.936;6.978;2023-01-26T13:01:11;101902.50;;;2.88;74.69
20825;BME280;10573;50.936;6.978;2023-01-26T13:03:42;101899.81;;;2.88;74.81
20825;BME280;10573;50.936;6.978;2023-01-26T13:11:02;101888.38;;;2.83;74.35
20825;BME280;10573;50.936;6.978;2023-01-26T13:13:33;101895.25;;;2.90;74.14
20825;BME280;10573;50.936;6.978;2023-01-26T13:18:54;101890.59;;;2.94;74.26
20825;BME280;10573;50.936;6.978;2023-01-26T13:23:58;101890.78;;;3.10;73.95
20825;BME280;10573;50.936;6.978;2023-01-26T13:34:45;101892.28;;;3.17;74.00
20825;BME280;10573;50.936;6.978;2023-01-26T13:37:32;101895.41;;;3.06;74.51
20825;BME280;10573;50.936;6.978;2023-01-26T13:40:02;101892.13;;;3.20;74.39
20825;BME280;10573;50.936;6.978;2023-01-26T13:42:36;101895.56;;;3.03;74.70
20825;BME280;10573;50.936;6.978;2023-01-26T13:45:13;101895.91;;;3.16;74.84
20825;BME280;10573;50.936;6.978;2023-01-26T13:47:43;101891.94;;;3.04;74.51
20825;BME280;10573;50.936;6.978;2023-01-26T13:52:54;101892.00;;;2.61;76.29
20825;BME280;10573;50.936;6.978;2023-01-26T13:55:29;101897.38;;;2.82;77.34
20825;BME280;10573;50.936;6.978;2023-01-26T13:58:12;101902.66;;;2.85;77.05
20825;BME280;10573;50.936;6.978;2023-01-26T14:00:38;101899.66;;;2.91;76.98
20825;BME280;10573;50.936;6.978;2023-01-26T14:03:03;101900.50;;;2.93;76.70
20825;BME280;10573;50.936;6.978;2023-01-26T14:05:30;101893.03;;;3.00;77.27
20825;BME280;10573;50.936;6.978;2023-01-26T14:07:56;101898.06;;;3.08;76.98
20825;BME280;10573;50.936;6.978;2023-01-26T14:10:22;101897.38;;;3.23;76.62
20825;BME280;10573;50.936;6.978;2023-01-26T14:12:50;101894.41;;;3.09;76.17
20825;BME280;10573;50.936;6.978;2023-01-26T14:15:30;101903.47;;;3.08;77.28
20825;BME280;10573;50.936;6.978;2023-01-26T14:17:59;101903.78;;;3.00;77.60
20825;BME280;10573;50.936;6.978;2023-01-26T14:20:34;101903.16;;;3.14;77.21
20825;BME280;10573;50.936;6.978;2023-01-26T14:25:32;101896.94;;;3.32;77.29
20825;BME280;10573;50.936;6.978;2023-01-26T14:27:58;101901.94;;;3.61;76.27
20825;BME280;10573;50.936;6.978;2023-01-26T14:30:26;101901.69;;;3.46;77.03
20825;BME280;10573;50.936;6.978;2023-01-26T14:33:11;101905.28;;;3.66;76.24
20825;BME280;10573;50.936;6.978;2023-01-26T14:35:37;101900.41;;;3.55;76.64
20825;BME280;10573;50.936;6.978;2023-01-26T14:40:35;101896.25;;;3.48;75.92
20825;BME280;10573;50.936;6.978;2023-01-26T14:43:00;101898.63;;;3.35;76.75
20825;BME280;10573;50.936;6.978;2023-01-26T14:45:30;101901.69;;;3.46;76.24
20825;BME280;10573;50.936;6.978;2023-01-26T14:47:59;101902.50;;;3.29;76.49
20825;BME280;10573;50.936;6.978;2023-01-26T14:50:28;101894.78;;;3.41;77.19
20825;BME280;10573;50.936;6.978;2023-01-26T14:52:57;101897.31;;;3.44;77.24
20825;BME280;10573;50.936;6.978;2023-01-26T14:55:33;101899.75;;;3.50;77.40